Terminal Aerodrome Forecast
Issued by NWS St Louis, MO

Home | Current Version | Previous Version | Text Only | Print | Product List | Glossary On
Versions: 1 2 3 4 5 6 7 8 9 10 11 12 13 14 15 16 17 18 19 20 21 22 23 24 25
000
FTUS43 KLSX 292000 AAA
TAFSTL
TAF AMD
KSTL 292046Z 2921/3024 30010G15KT P6SM SKC
     FM300000 VRB03KT P6SM SKC
     FM301200 16006KT P6SM SCT100
     FM301500 16008KT P6SM OVC100
     FM302100 15006KT P6SM VCSH OVC050=

USA.gov is the U.S. government's official web portal to all federal, state and local government web resources and services.